Startpagina
METAR-TAF:

METAR-TAF

Vliegvelden :

Woensdrecht, Nederland

Vliegbasis Woensdrecht

breedte: 51-27N, lengte: 004-20E, hoogte: 20 m

Actueel weer

Dit bericht is 32 minuten geleden gemaakt, om 09:55 UTC
Wind 6 kt uit het zuiden, variërend tussen het zuidoosten en het zuidwesten
Temperatuur 16°C
Vochtigheid 68%
Druk 1019 hPa
Zicht 10 km of meer
geen wolken onder 1500 m en geen cumulonimbus

METAR: EHWO 210955Z AUTO 17006KT 140V220 9999 OVC210 16/10 Q1019 BLU 18006KT CAVOK

Tijdstip: 12:27 (10:27 UTC)

Verwachting

Dit bericht is 1 uur en het 55 minuten geleden gemaakt, om 08:32 UTC
Verwachting geldig van 21 om 09 UTC tot 21 om 21 UTC
Wind 8 kt uit het zuiden
Zicht 10 km of meer
geen wolken onder 1500 m en geen cumulonimbus

TAF: EHWO 210832Z 2109/2121 18008KT CAVOK

Waarnemingen en weersverwachtingen van meer dan 4000 vliegvelden (METAR en TAF).

De beschikbare stations zijn de gele en rode punten op de kaart.

Ga met uw muis naar het station om de naam te zien.

Klik dan om waarnemingen en weersverwachtingen te zien.

kaart wijzigen: klik op de groene knoppen met een zwart kruis om in te zoomen, op de groene knop met een streepje om uit te zoomen of op de groene pijlen voor aangrenzende kaarten.


METAR-TAF: